createdAt,value
2023-02-07T01:04:47.119Z,2.53
2023-02-07T01:05:47.093Z,2.51
2023-02-07T01:06:47.064Z,2.46
2023-02-07T01:07:47.112Z,2.50
2023-02-07T01:08:47.163Z,2.44
2023-02-07T01:09:47.149Z,2.55
2023-02-07T01:10:47.155Z,2.61
2023-02-07T01:11:47.166Z,2.50
2023-02-07T01:12:47.205Z,2.48
2023-02-07T01:13:47.216Z,2.48
2023-02-07T01:14:47.196Z,2.44
2023-02-07T01:15:47.247Z,2.43
2023-02-07T01:16:47.272Z,2.40
2023-02-07T01:17:47.277Z,2.49
2023-02-07T01:18:47.281Z,2.42
2023-02-07T01:19:47.291Z,2.44
2023-02-07T01:20:47.327Z,2.44
2023-02-07T01:21:47.349Z,2.33
2023-02-07T01:22:47.358Z,2.49
2023-02-07T01:23:47.360Z,2.48
2023-02-07T01:24:47.371Z,2.40
2023-02-07T01:25:47.379Z,2.40
2023-02-07T01:26:47.403Z,2.37
2023-02-07T01:27:47.444Z,2.36
2023-02-07T01:28:47.452Z,2.43
2023-02-07T01:29:47.438Z,2.21
2023-02-07T01:30:47.625Z,2.30
2023-02-07T01:31:47.487Z,2.40
2023-02-07T01:32:47.485Z,2.37
2023-02-07T01:33:47.519Z,2.35
2023-02-07T01:34:47.535Z,2.35
2023-02-07T01:35:47.553Z,2.36
2023-02-07T01:36:47.557Z,2.29
2023-02-07T01:37:47.590Z,2.37
2023-02-07T01:38:47.609Z,2.34
2023-02-07T01:39:47.578Z,2.30
2023-02-07T01:40:47.592Z,2.27
2023-02-07T01:41:47.616Z,2.31
2023-02-07T01:42:47.650Z,2.44
2023-02-07T01:43:47.650Z,2.50
2023-02-07T01:44:47.658Z,2.40
2023-02-07T01:45:47.664Z,2.44
2023-02-07T01:46:47.692Z,2.36
2023-02-07T01:47:47.725Z,2.40
2023-02-07T01:48:47.713Z,2.44
2023-02-07T01:49:47.758Z,2.34
2023-02-07T01:50:47.741Z,2.36
2023-02-07T01:51:47.772Z,2.38
2023-02-07T01:52:47.802Z,2.34
2023-02-07T01:53:47.790Z,2.31
2023-02-07T01:54:47.827Z,2.33
2023-02-07T01:55:47.837Z,2.37
2023-02-07T01:56:47.838Z,2.34
2023-02-07T01:57:47.852Z,2.41
2023-02-07T04:54:52.397Z,3.51
2023-02-07T04:55:52.493Z,3.47
2023-02-07T04:56:52.522Z,3.41
2023-02-07T04:57:52.560Z,3.44
2023-02-07T04:58:52.596Z,3.35
2023-02-07T04:59:52.629Z,3.38
2023-02-07T05:00:52.650Z,3.45
2023-02-07T05:01:52.691Z,3.20
2023-02-07T05:02:52.734Z,3.39
2023-02-07T05:03:52.787Z,3.33
2023-02-07T05:04:52.826Z,3.24
2023-02-07T05:05:52.870Z,3.37
2023-02-07T05:06:52.893Z,3.27
2023-02-07T05:07:52.942Z,3.29
2023-02-07T05:08:52.991Z,3.27
2023-02-07T05:09:52.996Z,3.32
2023-02-07T05:10:53.054Z,3.22
2023-02-07T05:11:53.107Z,3.21
2023-02-07T05:12:53.131Z,3.09
2023-02-07T05:13:53.148Z,3.05
2023-02-07T05:17:53.322Z,3.05
2023-02-07T05:18:53.368Z,2.94
2023-02-07T05:19:53.398Z,3.04
2023-02-07T05:20:53.433Z,2.99
2023-02-07T05:21:53.493Z,2.96
2023-02-07T05:22:53.493Z,2.90
2023-02-07T05:23:53.537Z,2.81
2023-02-07T05:24:53.563Z,2.79
2023-02-07T05:25:53.623Z,2.76
2023-02-07T05:26:53.683Z,2.81
2023-02-07T05:27:53.774Z,2.80
2023-02-07T05:28:53.783Z,2.86
2023-02-07T05:29:53.852Z,2.79
2023-02-07T05:30:53.950Z,2.90
2023-02-07T05:31:53.973Z,2.85
2023-02-07T05:32:53.956Z,2.80
2023-02-07T05:33:54.018Z,2.77
2023-02-07T05:34:54.072Z,2.86
2023-02-07T05:35:54.155Z,2.79
2023-02-07T05:36:54.163Z,2.73
2023-02-07T05:37:54.216Z,2.80
2023-02-07T05:38:54.278Z,2.67
2023-02-07T05:39:54.279Z,2.64
2023-02-07T05:40:54.322Z,2.71
2023-02-07T05:41:54.362Z,2.60
2023-02-07T06:45:55.813Z,3.87
2023-02-07T09:52:02.409Z,3.58
2023-02-07T10:11:02.403Z,1.53
2023-02-07T10:12:02.454Z,1.58
2023-02-07T10:13:02.941Z,1.62
2023-02-07T10:14:02.466Z,1.69
2023-02-07T10:15:02.483Z,1.83
2023-02-07T10:16:02.504Z,1.91
2023-02-07T10:17:02.489Z,1.99
2023-02-07T10:18:02.556Z,1.98
2023-02-07T10:19:02.570Z,2.08
2023-02-07T10:20:02.610Z,2.12
2023-02-07T10:21:02.678Z,2.18
2023-02-07T10:22:02.739Z,2.24
2023-02-07T10:23:02.917Z,2.28
2023-02-07T10:24:02.873Z,2.34
2023-02-07T10:25:02.929Z,2.40
2023-02-07T10:26:02.970Z,2.40
2023-02-07T10:27:03.007Z,2.44
2023-02-07T10:28:03.089Z,2.48
2023-02-07T10:29:03.119Z,2.48
2023-02-07T10:30:03.150Z,2.53
2023-02-07T10:31:03.259Z,2.55
2023-02-07T10:32:03.305Z,2.59
2023-02-07T10:33:03.320Z,2.65
2023-02-07T10:34:03.341Z,2.68
2023-02-07T10:35:03.379Z,2.60
2023-02-07T10:36:03.427Z,2.71
2023-02-07T10:37:03.433Z,2.65
2023-02-07T10:38:03.499Z,2.67
2023-02-07T10:39:09.447Z,2.74
2023-02-07T10:40:04.559Z,2.74
2023-02-07T10:41:03.533Z,2.75
2023-02-07T10:42:03.537Z,2.78
2023-02-07T10:43:03.586Z,2.83
2023-02-07T10:44:03.488Z,3.04
2023-02-07T10:45:03.490Z,3.36
2023-02-07T10:46:06.236Z,3.73
2023-02-07T10:47:03.470Z,3.85
2023-02-07T10:48:03.483Z,3.98
2023-02-07T10:49:03.486Z,3.99
2023-02-07T10:50:03.453Z,3.66
2023-02-07T10:51:03.454Z,3.50
2023-02-07T10:52:03.437Z,3.59
2023-02-07T10:53:03.433Z,3.63
2023-02-07T10:54:03.416Z,1.69
2023-02-07T10:55:03.428Z,2.13
2023-02-07T10:56:03.417Z,3.71
2023-02-07T10:57:03.412Z,4.13
2023-02-07T10:58:17.675Z,3.97
2023-02-07T10:59:04.389Z,3.79
2023-02-07T11:00:03.383Z,3.73
2023-02-07T11:01:03.360Z,3.63
2023-02-07T11:02:03.369Z,3.73
2023-02-07T11:03:03.545Z,3.73
2023-02-07T11:04:03.341Z,3.63
2023-02-07T11:05:03.327Z,3.60
2023-02-07T11:06:03.345Z,3.48
2023-02-07T11:07:03.295Z,3.33
2023-02-07T11:08:03.471Z,3.31
2023-02-07T11:09:03.312Z,3.45
2023-02-07T11:10:03.329Z,3.43
2023-02-07T11:11:03.321Z,3.42
2023-02-07T11:12:03.405Z,3.47
2023-02-07T11:13:03.432Z,3.36
2023-02-07T11:14:03.425Z,3.37
2023-02-07T11:15:03.457Z,3.38
2023-02-07T11:16:03.516Z,3.38
2023-02-07T11:17:03.549Z,3.33
2023-02-07T11:18:03.587Z,3.37
2023-02-07T11:19:03.656Z,3.28
2023-02-07T11:20:03.625Z,3.19
2023-02-07T11:21:03.717Z,3.20
2023-02-07T11:22:03.680Z,3.08
2023-02-07T11:23:03.732Z,3.10
2023-02-07T11:24:03.749Z,3.05
2023-02-07T11:25:03.753Z,3.06
2023-02-07T11:26:03.817Z,3.02
2023-02-07T11:27:03.828Z,2.98
2023-02-07T11:28:03.902Z,3.00
2023-02-07T11:29:03.865Z,3.01
2023-02-07T11:30:03.882Z,2.99
2023-02-07T11:31:03.986Z,2.93
2023-02-07T11:32:03.954Z,2.95
2023-02-07T11:33:04.006Z,2.72
2023-02-07T11:34:04.041Z,2.76
2023-02-07T11:35:04.061Z,2.90
2023-02-07T11:36:04.079Z,2.74
2023-02-07T11:37:04.139Z,2.71
2023-02-07T11:38:04.838Z,2.71
2023-02-07T11:39:04.542Z,2.75
2023-02-07T11:40:04.175Z,2.83
2023-02-07T11:41:04.208Z,3.44
2023-02-07T11:42:04.214Z,3.40
2023-02-07T11:43:04.446Z,3.48
2023-02-07T11:44:04.247Z,3.43
2023-02-07T11:45:04.285Z,3.69
2023-02-07T11:46:04.264Z,3.76
2023-02-07T11:47:04.287Z,3.84
2023-02-07T11:48:04.281Z,3.93
2023-02-07T11:49:04.289Z,4.23
2023-02-07T11:50:04.272Z,4.37
2023-02-07T11:51:04.307Z,4.71
2023-02-07T11:52:04.310Z,4.92
2023-02-07T11:53:04.407Z,4.60
2023-02-07T11:54:04.379Z,4.59
2023-02-07T11:55:04.445Z,4.52
2023-02-07T11:56:04.425Z,4.86
2023-02-07T11:57:05.264Z,4.90
2023-02-07T11:58:04.685Z,5.06
2023-02-07T11:59:04.640Z,4.90
2023-02-07T12:00:04.718Z,4.71
2023-02-07T12:01:04.739Z,5.07
2023-02-07T12:02:04.769Z,5.00
2023-02-07T12:03:04.814Z,4.84
2023-02-07T12:04:04.925Z,5.19
2023-02-07T12:05:04.872Z,5.05
2023-02-07T12:06:04.833Z,5.10
2023-02-07T12:07:04.878Z,4.97
2023-02-07T12:08:04.903Z,4.88
2023-02-07T12:09:04.928Z,4.83
2023-02-07T12:11:04.942Z,5.04
2023-02-07T12:12:04.983Z,5.04
2023-02-07T12:15:05.106Z,4.86
2023-02-07T12:16:05.112Z,4.82
2023-02-07T12:17:05.128Z,4.86
2023-02-07T12:18:05.158Z,4.80
2023-02-07T12:19:05.209Z,4.55
2023-02-07T12:20:05.300Z,4.81
2023-02-07T12:21:05.255Z,4.56
2023-02-07T12:22:05.286Z,4.26
2023-02-07T12:23:34.579Z,6.67
2023-02-07T12:24:06.284Z,6.72
2023-02-07T12:25:05.291Z,5.82
2023-02-07T12:26:05.317Z,5.08
2023-02-07T12:27:05.302Z,4.65
2023-02-07T12:28:05.264Z,4.58
2023-02-07T12:29:13.324Z,4.74
2023-02-07T12:30:06.242Z,4.69
2023-02-07T12:31:06.530Z,4.43
2023-02-07T12:32:05.337Z,7.02
2023-02-07T12:33:05.234Z,9.61
2023-02-07T12:34:05.452Z,15.32
2023-02-07T12:35:05.213Z,11.30
2023-02-07T12:45:05.381Z,8.49
2023-02-07T12:46:05.507Z,8.19
2023-02-07T12:47:05.457Z,8.09
2023-02-07T12:48:05.511Z,7.89
2023-02-07T12:49:05.593Z,7.63
2023-02-07T12:50:05.623Z,7.48
2023-02-07T12:51:05.681Z,7.31
2023-02-07T12:52:07.184Z,7.23
2023-02-07T12:53:05.785Z,7.15
2023-02-07T12:54:05.826Z,7.05
2023-02-07T12:55:05.851Z,6.97
2023-02-07T12:56:05.938Z,6.87
2023-02-07T12:57:05.991Z,6.40
2023-02-07T12:58:06.033Z,5.95
2023-02-07T12:59:06.081Z,5.84
2023-02-07T13:00:06.204Z,5.42
2023-02-07T13:01:06.349Z,4.84
2023-02-07T13:02:06.327Z,4.59
2023-02-07T13:03:06.357Z,4.31
2023-02-07T13:04:06.400Z,3.97
2023-02-07T13:05:06.427Z,3.79
2023-02-07T13:06:06.477Z,3.62
2023-02-07T13:07:06.548Z,3.64
2023-02-07T13:08:06.603Z,3.61
2023-02-07T13:09:06.643Z,3.48
2023-02-07T13:10:06.684Z,3.42
2023-02-07T13:11:06.708Z,3.39
2023-02-07T13:12:06.791Z,3.35
2023-02-07T13:14:06.946Z,3.29
2023-02-07T13:15:06.957Z,3.28
2023-02-07T13:16:06.987Z,3.15
2023-02-07T13:17:07.100Z,3.17
2023-02-07T13:18:07.086Z,3.11
2023-02-07T13:19:07.178Z,3.09
2023-02-07T13:20:07.214Z,3.03
2023-02-07T13:21:07.267Z,3.06
2023-02-07T13:22:07.341Z,3.02
2023-02-07T13:23:07.348Z,3.00
2023-02-07T13:24:07.384Z,2.97
2023-02-07T13:25:07.423Z,2.94
2023-02-07T13:26:07.461Z,2.86
2023-02-07T13:27:07.498Z,2.89
2023-02-07T13:28:07.695Z,2.86
2023-02-07T13:29:07.593Z,2.84
2023-02-07T13:30:07.606Z,2.79
2023-02-07T13:31:07.658Z,2.80
2023-02-07T13:32:07.732Z,2.78
2023-02-07T13:33:07.694Z,2.73
2023-02-07T13:34:07.732Z,2.71
2023-02-07T13:35:07.780Z,2.69
2023-02-07T13:36:07.820Z,2.69
2023-02-07T13:37:16.323Z,2.65
2023-02-07T13:38:08.801Z,2.65
2023-02-07T13:39:07.829Z,2.65
2023-02-07T13:40:07.783Z,2.59
2023-02-07T13:41:07.786Z,2.56
2023-02-07T13:42:07.765Z,2.57
2023-02-07T13:43:07.791Z,2.52
2023-02-07T13:44:10.134Z,2.53
2023-02-07T13:45:08.017Z,2.50
2023-02-07T13:46:08.075Z,2.48
2023-02-07T13:47:08.070Z,2.46
2023-02-07T13:48:08.057Z,2.47
2023-02-07T13:49:08.104Z,2.45
2023-02-07T13:50:08.109Z,2.40
2023-02-07T13:51:08.144Z,2.41
2023-02-07T13:52:09.435Z,2.34
2023-02-07T13:53:08.153Z,2.35
2023-02-07T13:54:08.185Z,2.35
2023-02-07T13:55:08.202Z,2.32
2023-02-07T13:56:08.256Z,2.30
2023-02-07T13:57:08.291Z,2.32
2023-02-07T13:58:09.517Z,2.33
2023-02-07T13:59:08.409Z,2.31
2023-02-07T14:00:08.502Z,2.27
2023-02-07T14:01:08.524Z,2.24
2023-02-07T14:02:08.499Z,2.23
2023-02-07T14:03:08.634Z,2.23
2023-02-07T14:05:08.603Z,2.19
2023-02-07T14:06:08.592Z,2.20
2023-02-07T14:07:08.629Z,2.19
2023-02-07T14:08:08.620Z,2.17
2023-02-07T14:09:08.660Z,2.14
2023-02-07T14:10:08.674Z,2.14
2023-02-07T14:11:08.694Z,2.13
2023-02-07T14:12:08.687Z,2.06
2023-02-07T14:13:08.810Z,2.09
2023-02-07T14:14:10.746Z,2.10
2023-02-07T14:15:08.735Z,2.08
2023-02-07T14:16:08.838Z,2.07
2023-02-07T14:17:08.858Z,2.02
2023-02-07T14:18:08.847Z,2.03
2023-02-07T14:19:08.922Z,2.04
2023-02-07T14:20:08.920Z,2.02
2023-02-07T14:21:08.925Z,2.00
2023-02-07T14:22:08.944Z,2.00
2023-02-07T14:23:08.957Z,1.99
2023-02-07T14:24:09.070Z,1.96
2023-02-07T14:28:09.049Z,1.94
2023-02-07T14:29:09.005Z,1.93
2023-02-07T14:30:09.032Z,1.91
2023-02-07T14:31:09.110Z,1.87
2023-02-07T14:32:09.077Z,1.90
2023-02-07T14:33:09.100Z,1.90
2023-02-07T14:34:09.124Z,1.83
2023-02-07T14:35:09.102Z,1.86
2023-02-07T14:36:09.105Z,1.83
2023-02-07T14:37:09.105Z,1.82
2023-02-07T14:38:09.149Z,1.84
2023-02-07T14:39:09.151Z,1.84
2023-02-07T14:40:09.159Z,1.81
2023-02-07T14:41:11.346Z,1.77
2023-02-07T14:42:09.350Z,1.78
2023-02-07T14:43:09.373Z,1.78
2023-02-07T14:44:10.314Z,1.77
2023-02-07T14:45:09.366Z,1.76
2023-02-07T14:46:09.429Z,1.75
2023-02-07T14:47:09.443Z,1.73
2023-02-07T14:48:09.419Z,1.72
2023-02-07T14:49:09.472Z,1.73
2023-02-07T14:50:09.527Z,1.73
2023-02-07T14:51:09.499Z,1.73
2023-02-07T14:52:09.548Z,1.70
2023-02-07T14:53:09.574Z,1.69
2023-02-07T14:54:09.600Z,1.69
2023-02-07T14:55:09.563Z,1.69
2023-02-07T14:56:09.587Z,1.70
2023-02-07T14:57:09.592Z,1.67
2023-02-07T14:58:09.597Z,1.66
2023-02-07T14:59:09.642Z,1.68
2023-02-07T15:00:09.687Z,1.66
2023-02-07T15:01:09.666Z,1.64
2023-02-07T15:02:09.618Z,1.63
2023-02-07T15:03:09.670Z,1.63
2023-02-07T15:04:09.675Z,1.62
2023-02-07T15:05:09.696Z,1.62
2023-02-07T15:06:09.699Z,1.61
2023-02-07T15:07:09.705Z,1.65
2023-02-07T15:08:09.728Z,1.64
2023-02-07T15:09:09.782Z,1.60
2023-02-07T15:10:09.737Z,1.58
2023-02-07T15:13:09.746Z,1.56
2023-02-07T15:14:09.769Z,1.56
2023-02-07T15:15:09.779Z,1.55
2023-02-07T15:16:09.787Z,1.55
2023-02-07T15:17:09.781Z,1.55
2023-02-07T15:18:09.779Z,1.54
2023-02-07T15:19:09.792Z,1.53
2023-02-07T15:20:09.752Z,1.53
2023-02-07T15:21:09.749Z,1.53
2023-02-07T15:22:20.579Z,1.53
2023-02-07T15:23:10.734Z,1.53
2023-02-07T15:24:09.740Z,1.53
2023-02-07T15:25:09.714Z,1.54
2023-02-07T15:26:09.704Z,1.53
2023-02-07T15:27:09.726Z,1.54
2023-02-07T15:28:18.300Z,1.53
2023-02-07T15:29:10.728Z,1.53
2023-02-07T15:30:09.674Z,1.53
2023-02-07T15:31:09.781Z,1.52
2023-02-07T15:32:09.831Z,1.52
2023-02-07T15:33:09.680Z,1.49
2023-02-07T15:34:09.661Z,1.51
2023-02-07T15:35:09.651Z,1.49
2023-02-07T15:36:09.641Z,1.50
2023-02-07T15:37:09.622Z,1.50
2023-02-07T15:38:09.669Z,1.48
2023-02-07T15:39:09.629Z,1.48
2023-02-07T15:40:09.630Z,1.48
2023-02-07T18:55:12.449Z,1.04
2023-02-07T18:57:12.459Z,1.04
2023-02-07T18:58:12.430Z,1.01
2023-02-07T18:59:12.485Z,1.04
2023-02-07T19:00:12.474Z,1.04
2023-02-07T19:01:12.567Z,1.03
2023-02-07T19:02:12.542Z,1.03
2023-02-07T19:03:12.541Z,1.02
2023-02-07T19:04:12.581Z,1.03
2023-02-07T19:05:12.677Z,1.03
2023-02-07T19:06:12.640Z,1.02
2023-02-07T19:07:12.656Z,1.03
2023-02-07T19:08:12.680Z,1.02
2023-02-07T19:09:12.741Z,1.02
2023-02-07T19:10:12.772Z,1.02
2023-02-07T19:11:12.750Z,1.01
2023-02-07T19:12:12.793Z,1.00
2023-02-07T19:13:12.798Z,1.03
2023-02-07T19:14:12.841Z,1.02
2023-02-07T19:15:12.880Z,1.03
2023-02-07T19:16:12.918Z,1.01
2023-02-07T19:17:12.915Z,1.00
2023-02-07T19:18:12.936Z,1.01
2023-02-07T19:19:12.950Z,1.01
2023-02-07T19:20:13.002Z,1.01
2023-02-07T19:21:13.025Z,1.01
2023-02-07T19:22:13.050Z,1.03
2023-02-07T19:23:13.078Z,1.03
2023-02-07T19:24:13.102Z,1.02
2023-02-07T19:25:13.132Z,1.01
2023-02-07T19:26:13.171Z,1.00
2023-02-07T19:27:13.166Z,1.01
2023-02-07T19:28:13.282Z,1.02
2023-02-07T19:29:13.207Z,1.02
2023-02-07T19:30:13.228Z,1.02
2023-02-07T19:31:13.399Z,1.01
2023-02-07T19:32:13.254Z,1.02
2023-02-07T19:33:13.304Z,1.01
2023-02-07T19:34:13.327Z,1.01
2023-02-07T19:35:13.365Z,0.99
2023-02-07T19:36:13.362Z,1.01
2023-02-07T19:37:13.440Z,1.00
2023-02-07T19:38:13.413Z,1.02
2023-02-07T19:39:13.451Z,1.01
2023-02-07T19:40:13.482Z,1.00
2023-02-07T19:41:13.496Z,1.00
2023-02-07T19:42:13.495Z,1.00
2023-02-07T19:43:13.549Z,1.00
2023-02-07T19:44:13.591Z,1.01
2023-02-07T19:45:13.610Z,1.01
2023-02-07T19:46:13.677Z,1.01
2023-02-07T19:47:13.638Z,1.00
2023-02-07T19:48:13.679Z,1.01
2023-02-07T19:49:13.741Z,1.00
2023-02-07T19:50:13.780Z,1.00
2023-02-07T19:51:13.772Z,0.99
2023-02-07T19:52:13.772Z,0.99
2023-02-07T19:53:13.794Z,1.00
2023-02-07T19:54:13.848Z,0.98
2023-02-07T19:55:13.891Z,0.97
2023-02-07T19:56:13.873Z,0.96
2023-02-07T19:57:13.916Z,1.01
2023-02-07T19:58:13.946Z,0.99
2023-02-07T19:59:13.952Z,0.99
2023-02-07T20:00:13.994Z,0.98
2023-02-07T20:01:13.979Z,0.99
2023-02-07T20:02:14.031Z,1.00
2023-02-07T20:03:14.071Z,0.98
2023-02-07T20:04:14.120Z,0.99
2023-02-07T20:05:14.075Z,0.97
2023-02-07T20:06:14.096Z,0.97
2023-02-07T20:07:14.162Z,0.98
2023-02-07T20:08:14.160Z,0.98
2023-02-07T20:09:14.171Z,0.97
2023-02-07T20:10:14.203Z,0.98
2023-02-07T20:11:14.254Z,1.00
2023-02-07T20:12:14.256Z,0.97
2023-02-07T20:13:14.304Z,0.98
2023-02-07T20:14:14.324Z,0.98
2023-02-07T20:15:14.305Z,0.97
2023-02-07T20:16:14.383Z,0.98
2023-02-07T20:17:14.404Z,0.97
2023-02-07T20:18:14.407Z,0.99
2023-02-07T20:19:14.407Z,0.99
2023-02-07T20:20:14.468Z,0.97
2023-02-07T20:21:14.467Z,0.98
2023-02-07T20:22:14.494Z,0.97
2023-02-07T20:23:14.518Z,0.95
2023-02-07T20:24:14.544Z,0.98
2023-02-07T20:25:14.571Z,0.98
2023-02-07T20:26:14.578Z,0.98
2023-02-07T20:27:14.626Z,0.98
2023-02-07T20:28:14.693Z,0.95
2023-02-07T20:29:14.660Z,0.96
2023-02-07T20:30:14.681Z,0.96
2023-02-07T20:31:14.822Z,0.96
2023-02-07T20:32:14.750Z,0.96
2023-02-07T20:33:14.786Z,0.95
2023-02-07T20:34:14.802Z,0.96
2023-02-07T20:36:14.826Z,0.95
2023-02-07T20:37:14.875Z,0.96
2023-02-07T20:38:14.896Z,0.96
2023-02-07T20:39:14.919Z,0.95
2023-02-07T20:40:14.957Z,0.98
2023-02-07T20:41:14.976Z,0.94
2023-02-07T20:42:15.014Z,0.96
2023-02-07T20:43:15.041Z,0.97
2023-02-07T20:44:15.059Z,0.95
2023-02-07T20:45:15.074Z,0.93
2023-02-07T20:46:15.122Z,0.97
2023-02-07T20:47:15.155Z,0.98
2023-02-07T20:48:15.172Z,0.95
2023-02-07T20:49:15.191Z,0.94
2023-02-07T20:50:15.222Z,0.96
2023-02-07T20:51:15.234Z,0.95
2023-02-07T20:52:15.286Z,0.97
2023-02-07T20:53:15.306Z,0.96
2023-02-07T20:54:15.321Z,0.96
2023-02-07T20:55:15.358Z,0.96
2023-02-07T20:56:15.373Z,0.96
2023-02-07T20:57:15.400Z,0.97
2023-02-07T20:58:15.441Z,0.95
2023-02-07T20:59:15.436Z,0.96
2023-02-07T21:00:15.514Z,0.93
2023-02-07T21:01:15.559Z,0.94
2023-02-07T21:02:15.545Z,0.95
2023-02-07T21:03:15.558Z,0.95
2023-02-07T21:04:15.585Z,0.96
2023-02-07T21:05:15.642Z,0.95
2023-02-07T21:06:15.670Z,0.96
2023-02-07T21:07:15.656Z,0.93
2023-02-07T21:08:15.724Z,0.96
2023-02-07T21:09:15.763Z,0.94
2023-02-07T21:10:15.794Z,0.96
2023-02-07T21:11:16.978Z,0.96
2023-02-07T21:12:15.826Z,0.94
2023-02-07T21:13:15.886Z,0.95
2023-02-07T21:14:15.916Z,0.95
2023-02-07T21:15:15.957Z,0.93
2023-02-07T21:16:16.018Z,0.94
2023-02-07T21:17:15.986Z,0.93
2023-02-07T21:18:16.051Z,0.94
2023-02-07T21:19:17.110Z,0.95
2023-02-07T21:20:16.201Z,0.95
2023-02-07T21:21:16.105Z,0.95
2023-02-07T21:22:16.139Z,0.95
2023-02-07T21:23:16.148Z,0.95
2023-02-07T21:24:16.208Z,0.94
2023-02-07T21:25:16.197Z,0.95
2023-02-07T21:26:16.211Z,0.94
2023-02-07T21:27:16.253Z,0.95
2023-02-07T21:28:16.352Z,0.94
2023-02-07T21:29:16.363Z,0.95
2023-02-07T21:30:16.379Z,0.94
2023-02-07T21:31:16.401Z,0.93
2023-02-07T21:32:16.438Z,0.95
2023-02-07T21:33:16.433Z,0.94
2023-02-07T21:34:16.444Z,0.93
2023-02-07T21:35:16.515Z,0.94
2023-02-07T21:36:16.509Z,0.94
2023-02-07T21:37:16.556Z,0.96
2023-02-07T21:38:16.548Z,0.94
2023-02-07T21:39:16.583Z,0.92
2023-02-07T21:40:17.161Z,0.95
2023-02-07T21:41:16.675Z,0.94
2023-02-07T21:42:16.694Z,0.92
2023-02-07T21:43:16.724Z,0.93
2023-02-07T21:44:16.778Z,0.93
2023-02-07T21:45:16.773Z,0.95
2023-02-07T21:46:16.822Z,0.93
2023-02-07T21:47:16.828Z,0.92
2023-02-07T21:48:16.875Z,0.93
2023-02-07T21:49:16.873Z,0.93
2023-02-07T21:50:16.952Z,0.91
2023-02-07T21:51:16.953Z,0.94
2023-02-07T21:52:16.994Z,0.93
2023-02-07T21:53:16.989Z,0.94
2023-02-07T21:54:17.051Z,0.93
2023-02-07T21:55:17.104Z,0.94
2023-02-07T21:56:17.109Z,0.93
2023-02-07T21:57:17.099Z,0.94
2023-02-07T21:58:17.141Z,0.94
2023-02-07T21:59:17.175Z,0.92
2023-02-07T22:00:17.189Z,0.94
2023-02-07T22:01:17.250Z,0.92
2023-02-07T22:02:17.328Z,0.93
2023-02-07T22:03:17.264Z,0.93
2023-02-07T22:04:17.272Z,0.93
2023-02-07T22:05:17.349Z,0.94
2023-02-07T22:06:17.381Z,0.94
2023-02-07T22:07:17.408Z,0.92
2023-02-07T22:08:17.455Z,0.93
2023-02-07T22:09:17.458Z,0.94
2023-02-07T22:10:17.514Z,0.93
2023-02-07T22:11:17.518Z,0.93
2023-02-07T22:12:17.581Z,0.92
2023-02-07T22:13:17.543Z,0.94
2023-02-07T22:14:17.657Z,0.93
2023-02-07T22:15:17.598Z,0.93
2023-02-07T22:16:17.696Z,0.93
2023-02-07T22:17:17.772Z,0.92
2023-02-07T22:18:17.710Z,0.94
2023-02-07T22:19:17.699Z,0.93
2023-02-07T22:20:17.757Z,0.92
2023-02-07T22:21:17.787Z,0.91
2023-02-07T22:22:17.807Z,0.92
2023-02-07T22:23:17.783Z,0.94
2023-02-07T22:24:17.849Z,0.91
2023-02-07T22:25:17.864Z,0.93
2023-02-07T22:26:17.899Z,0.91
2023-02-07T22:27:18.025Z,0.92
2023-02-07T22:28:17.999Z,0.92
2023-02-07T22:29:17.981Z,0.93
2023-02-07T22:30:18.009Z,0.91
2023-02-07T22:31:18.147Z,0.90
2023-02-07T22:32:18.126Z,0.91
2023-02-07T22:33:18.075Z,0.91
2023-02-07T22:34:18.108Z,0.91
2023-02-07T22:35:18.159Z,0.91
2023-02-07T22:36:18.193Z,0.90
2023-02-07T22:37:18.197Z,0.91
2023-02-07T22:38:18.227Z,0.92
2023-02-07T22:39:18.265Z,0.92
2023-02-07T22:40:18.296Z,0.91
2023-02-07T22:41:18.292Z,0.93
2023-02-07T22:42:18.371Z,0.90
2023-02-07T22:43:18.374Z,0.92
2023-02-07T22:44:18.390Z,0.93
2023-02-07T22:45:18.378Z,0.90
2023-02-07T22:46:18.483Z,0.93
2023-02-07T22:47:18.475Z,0.89
2023-02-07T22:48:18.472Z,0.91
2023-02-07T22:49:18.547Z,0.90
2023-02-07T22:50:18.570Z,0.90
2023-02-07T22:51:18.623Z,0.88
2023-02-07T22:52:18.627Z,0.91
2023-02-07T22:53:18.625Z,0.89
2023-02-07T22:54:18.645Z,0.89
2023-02-07T22:55:18.685Z,0.89
2023-02-07T22:56:18.730Z,0.89
2023-02-07T22:57:18.771Z,0.89
2023-02-07T22:58:18.787Z,0.90
